sensor_id;sensor_type;location;lat;lon;timestamp;pressure;altitude;pressure_sealevel;temperature;humidity
63194;BME280;49289;51.670;5.624;2023-02-18T00:01:34;102373.86;;;17.59;60.42
63194;BME280;49289;51.670;5.624;2023-02-18T00:03:23;102388.55;;;17.43;60.76
63194;BME280;49289;51.670;5.624;2023-02-18T00:05:11;102388.70;;;16.45;63.91
63194;BME280;49289;51.670;5.624;2023-02-18T00:06:59;102366.25;;;16.32;64.16
63194;BME280;49289;51.670;5.624;2023-02-18T00:08:47;102373.00;;;16.90;63.37
63194;BME280;49289;51.670;5.624;2023-02-18T00:10:35;102352.44;;;16.41;64.17
63194;BME280;49289;51.670;5.624;2023-02-18T00:12:23;102373.51;;;16.51;64.21
63194;BME280;49289;51.670;5.624;2023-02-18T00:14:11;102373.52;;;16.04;65.70
63194;BME280;49289;51.670;5.624;2023-02-18T00:15:58;102355.08;;;16.52;63.75
63194;BME280;49289;51.670;5.624;2023-02-18T00:17:45;102351.42;;;16.89;62.75
63194;BME280;49289;51.670;5.624;2023-02-18T00:19:32;102354.92;;;16.38;64.43
63194;BME280;49289;51.670;5.624;2023-02-18T00:21:19;102357.92;;;16.16;65.08
63194;BME280;49289;51.670;5.624;2023-02-18T00:23:06;102366.19;;;15.81;66.44
63194;BME280;49289;51.670;5.624;2023-02-18T00:24:53;102354.16;;;16.43;64.24
63194;BME280;49289;51.670;5.624;2023-02-18T00:26:42;102353.56;;;16.49;64.61
63194;BME280;49289;51.670;5.624;2023-02-18T00:28:30;102363.34;;;16.91;63.11
63194;BME280;49289;51.670;5.624;2023-02-18T00:30:19;102346.09;;;16.97;62.34
63194;BME280;49289;51.670;5.624;2023-02-18T00:32:06;102341.00;;;16.56;63.72
63194;BME280;49289;51.670;5.624;2023-02-18T00:33:53;102356.36;;;16.49;64.44
63194;BME280;49289;51.670;5.624;2023-02-18T00:35:40;102358.11;;;16.06;65.48
63194;BME280;49289;51.670;5.624;2023-02-18T00:37:27;102353.38;;;16.82;63.60
63194;BME280;49289;51.670;5.624;2023-02-18T00:39:15;102345.45;;;17.34;62.01
63194;BME280;49289;51.670;5.624;2023-02-18T00:41:02;102331.17;;;16.79;62.97
63194;BME280;49289;51.670;5.624;2023-02-18T00:42:49;102332.29;;;16.12;65.36
63194;BME280;49289;51.670;5.624;2023-02-18T00:44:36;102327.83;;;16.44;64.59
63194;BME280;49289;51.670;5.624;2023-02-18T00:46:23;102336.59;;;16.99;63.40
63194;BME280;49289;51.670;5.624;2023-02-18T00:48:10;102337.20;;;16.52;64.11
63194;BME280;49289;51.670;5.624;2023-02-18T00:49:58;102336.91;;;17.19;62.63
63194;BME280;49289;51.670;5.624;2023-02-18T00:51:46;102326.80;;;17.06;62.56
63194;BME280;49289;51.670;5.624;2023-02-18T00:53:35;102315.47;;;17.14;62.29
63194;BME280;49289;51.670;5.624;2023-02-18T00:55:21;102315.75;;;16.79;63.26
63194;BME280;49289;51.670;5.624;2023-02-18T00:57:10;102313.84;;;17.19;62.47
63194;BME280;49289;51.670;5.624;2023-02-18T00:58:58;102333.45;;;17.14;62.02
63194;BME280;49289;51.670;5.624;2023-02-18T01:00:46;102331.59;;;17.17;62.56
63194;BME280;49289;51.670;5.624;2023-02-18T01:02:34;102303.27;;;17.26;62.03
63194;BME280;49289;51.670;5.624;2023-02-18T01:04:22;102321.66;;;17.15;62.24
63194;BME280;49289;51.670;5.624;2023-02-18T01:06:10;102309.66;;;16.93;62.90
63194;BME280;49289;51.670;5.624;2023-02-18T01:07:56;102311.75;;;16.91;63.22
63194;BME280;49289;51.670;5.624;2023-02-18T01:09:44;102309.78;;;16.93;63.17
63194;BME280;49289;51.670;5.624;2023-02-18T01:11:32;102285.81;;;16.72;63.32
63194;BME280;49289;51.670;5.624;2023-02-18T01:13:21;102292.47;;;16.41;64.70
63194;BME280;49289;51.670;5.624;2023-02-18T01:15:10;102289.25;;;16.92;63.13
63194;BME280;49289;51.670;5.624;2023-02-18T01:16:56;102285.89;;;16.58;64.54
63194;BME280;49289;51.670;5.624;2023-02-18T01:18:43;102288.95;;;16.93;63.32
63194;BME280;49289;51.670;5.624;2023-02-18T01:20:31;102300.88;;;17.05;63.15
63194;BME280;49289;51.670;5.624;2023-02-18T01:22:19;102282.22;;;17.14;62.72
63194;BME280;49289;51.670;5.624;2023-02-18T01:24:07;102299.31;;;17.34;62.24
63194;BME280;49289;51.670;5.624;2023-02-18T01:25:55;102282.60;;;17.38;61.98
63194;BME280;49289;51.670;5.624;2023-02-18T01:27:43;102300.53;;;17.24;62.57
63194;BME280;49289;51.670;5.624;2023-02-18T01:29:30;102274.64;;;16.75;63.27
63194;BME280;49289;51.670;5.624;2023-02-18T01:31:17;102297.44;;;16.73;64.10
63194;BME280;49289;51.670;5.624;2023-02-18T01:33:05;102294.77;;;16.95;63.64
63194;BME280;49289;51.670;5.624;2023-02-18T01:34:53;102305.09;;;16.66;64.06
63194;BME280;49289;51.670;5.624;2023-02-18T01:36:42;102298.03;;;17.18;63.29
63194;BME280;49289;51.670;5.624;2023-02-18T01:38:30;102272.20;;;16.84;63.39
63194;BME280;49289;51.670;5.624;2023-02-18T01:40:20;102276.28;;;17.15;62.94
63194;BME280;49289;51.670;5.624;2023-02-18T01:42:11;102287.32;;;16.81;63.92
63194;BME280;49289;51.670;5.624;2023-02-18T01:48:14;102298.23;;;16.61;65.47
63194;BME280;49289;51.670;5.624;2023-02-18T01:50:02;102296.20;;;17.02;63.87
63194;BME280;49289;51.670;5.624;2023-02-18T01:51:50;102299.91;;;16.61;65.43
63194;BME280;49289;51.670;5.624;2023-02-18T01:53:39;102287.42;;;16.39;66.28
63194;BME280;49289;51.670;5.624;2023-02-18T01:55:26;102299.93;;;16.63;66.29
63194;BME280;49289;51.670;5.624;2023-02-18T01:57:15;102278.95;;;16.08;67.70
63194;BME280;49289;51.670;5.624;2023-02-18T01:59:03;102278.61;;;15.77;69.31
63194;BME280;49289;51.670;5.624;2023-02-18T02:00:50;102288.36;;;15.88;69.34
63194;BME280;49289;51.670;5.624;2023-02-18T02:02:38;102291.49;;;16.39;68.05
63194;BME280;49289;51.670;5.624;2023-02-18T02:04:25;102268.52;;;16.19;68.37
63194;BME280;49289;51.670;5.624;2023-02-18T02:06:16;102265.16;;;16.11;68.93
63194;BME280;49289;51.670;5.624;2023-02-18T02:08:02;102262.66;;;16.23;68.93
63194;BME280;49289;51.670;5.624;2023-02-18T02:09:50;102279.83;;;16.88;66.85
63194;BME280;49289;51.670;5.624;2023-02-18T02:14:05;102275.27;;;16.16;68.96
63194;BME280;49289;51.670;5.624;2023-02-18T02:15:52;102257.98;;;15.83;69.61
63194;BME280;49289;51.670;5.624;2023-02-18T02:17:43;102256.17;;;15.99;69.64
63194;BME280;49289;51.670;5.624;2023-02-18T02:19:58;102272.52;;;16.45;68.62
63194;BME280;49289;51.670;5.624;2023-02-18T02:21:56;102257.39;;;16.25;68.57
63194;BME280;49289;51.670;5.624;2023-02-18T02:26:38;102248.73;;;16.13;69.07
63194;BME280;49289;51.670;5.624;2023-02-18T02:31:09;102252.58;;;16.11;69.29
63194;BME280;49289;51.670;5.624;2023-02-18T02:35:07;102228.21;;;15.91;69.58
63194;BME280;49289;51.670;5.624;2023-02-18T02:36:55;102226.20;;;15.99;70.12
63194;BME280;49289;51.670;5.624;2023-02-18T02:40:45;102238.51;;;16.40;68.85
63194;BME280;49289;51.670;5.624;2023-02-18T02:42:33;102215.66;;;16.64;68.17
63194;BME280;49289;51.670;5.624;2023-02-18T02:44:25;102209.92;;;16.73;67.63
63194;BME280;49289;51.670;5.624;2023-02-18T02:46:13;102208.33;;;16.63;67.77
63194;BME280;49289;51.670;5.624;2023-02-18T02:48:03;102217.13;;;16.78;67.39
63194;BME280;49289;51.670;5.624;2023-02-18T02:49:49;102200.68;;;16.37;68.72
63194;BME280;49289;51.670;5.624;2023-02-18T02:51:39;102190.00;;;16.35;68.65
63194;BME280;49289;51.670;5.624;2023-02-18T02:53:25;102187.55;;;16.55;68.15
63194;BME280;49289;51.670;5.624;2023-02-18T02:55:15;102202.87;;;16.07;69.41
63194;BME280;49289;51.670;5.624;2023-02-18T02:59:02;102192.20;;;16.16;69.41
63194;BME280;49289;51.670;5.624;2023-02-18T03:00:53;102179.16;;;16.06;69.45
63194;BME280;49289;51.670;5.624;2023-02-18T03:02:40;102169.36;;;16.26;69.11
63194;BME280;49289;51.670;5.624;2023-02-18T03:04:37;102183.37;;;16.33;69.10
63194;BME280;49289;51.670;5.624;2023-02-18T03:06:33;102173.28;;;15.72;70.75
63194;BME280;49289;51.670;5.624;2023-02-18T03:08:24;102173.41;;;16.24;69.88
63194;BME280;49289;51.670;5.624;2023-02-18T03:10:18;102172.84;;;16.39;69.20
63194;BME280;49289;51.670;5.624;2023-02-18T03:12:05;102157.94;;;15.65;70.76
63194;BME280;49289;51.670;5.624;2023-02-18T03:14:01;102153.69;;;15.79;70.87
63194;BME280;49289;51.670;5.624;2023-02-18T03:15:48;102162.14;;;16.35;68.87
63194;BME280;49289;51.670;5.624;2023-02-18T03:17:35;102158.94;;;15.45;71.74
63194;BME280;49289;51.670;5.624;2023-02-18T03:19:23;102136.81;;;15.91;70.69
63194;BME280;49289;51.670;5.624;2023-02-18T03:21:12;102134.45;;;15.53;71.02
63194;BME280;49289;51.670;5.624;2023-02-18T03:22:59;102130.89;;;16.08;70.01
63194;BME280;49289;51.670;5.624;2023-02-18T03:24:47;102121.59;;;15.77;70.81
63194;BME280;49289;51.670;5.624;2023-02-18T03:26:33;102128.88;;;15.58;71.69
63194;BME280;49289;51.670;5.624;2023-02-18T03:28:20;102134.23;;;15.52;71.97
63194;BME280;49289;51.670;5.624;2023-02-18T03:30:09;102125.65;;;15.85;70.86
63194;BME280;49289;51.670;5.624;2023-02-18T03:31:56;102136.55;;;15.59;71.82
63194;BME280;49289;51.670;5.624;2023-02-18T03:33:45;102138.70;;;15.64;72.08
63194;BME280;49289;51.670;5.624;2023-02-18T03:35:33;102111.83;;;15.73;70.91
63194;BME280;49289;51.670;5.624;2023-02-18T03:37:21;102128.89;;;15.50;72.45
63194;BME280;49289;51.670;5.624;2023-02-18T03:39:09;102119.04;;;15.48;72.50
63194;BME280;49289;51.670;5.624;2023-02-18T03:40:56;102102.86;;;15.66;71.83
63194;BME280;49289;51.670;5.624;2023-02-18T03:42:43;102103.98;;;15.78;71.37
63194;BME280;49289;51.670;5.624;2023-02-18T03:44:30;102105.91;;;15.43;72.36
63194;BME280;49289;51.670;5.624;2023-02-18T03:46:17;102102.35;;;15.45;72.54
63194;BME280;49289;51.670;5.624;2023-02-18T03:48:04;102111.13;;;15.64;72.26
63194;BME280;49289;51.670;5.624;2023-02-18T03:49:53;102092.73;;;15.39;72.42
63194;BME280;49289;51.670;5.624;2023-02-18T03:51:41;102100.95;;;15.70;72.10
63194;BME280;49289;51.670;5.624;2023-02-18T03:53:29;102079.95;;;16.04;70.23
63194;BME280;49289;51.670;5.624;2023-02-18T03:55:17;102081.78;;;15.36;72.67
63194;BME280;49289;51.670;5.624;2023-02-18T03:57:04;102079.08;;;15.21;72.29
63194;BME280;49289;51.670;5.624;2023-02-18T03:58:51;102098.50;;;15.56;71.68
63194;BME280;49289;51.670;5.624;2023-02-18T04:00:39;102081.13;;;15.77;71.34
63194;BME280;49289;51.670;5.624;2023-02-18T04:02:27;102092.80;;;15.65;71.92
63194;BME280;49289;51.670;5.624;2023-02-18T04:04:16;102103.09;;;16.05;70.95
63194;BME280;49289;51.670;5.624;2023-02-18T04:06:04;102089.77;;;15.78;70.78
63194;BME280;49289;51.670;5.624;2023-02-18T04:07:52;102091.59;;;15.33;72.26
63194;BME280;49289;51.670;5.624;2023-02-18T04:09:40;102084.95;;;15.74;71.81
63194;BME280;49289;51.670;5.624;2023-02-18T04:11:28;102079.97;;;15.45;72.39
63194;BME280;49289;51.670;5.624;2023-02-18T04:13:16;102068.22;;;15.14;73.33
63194;BME280;49289;51.670;5.624;2023-02-18T04:15:04;102083.57;;;15.57;71.96
63194;BME280;49289;51.670;5.624;2023-02-18T04:16:51;102056.51;;;15.31;73.22
63194;BME280;49289;51.670;5.624;2023-02-18T04:18:38;102049.94;;;15.65;72.12
63194;BME280;49289;51.670;5.624;2023-02-18T04:20:25;102065.03;;;15.66;72.00
63194;BME280;49289;51.670;5.624;2023-02-18T04:22:12;102051.61;;;15.54;72.21
63194;BME280;49289;51.670;5.624;2023-02-18T04:23:59;102060.73;;;15.44;72.82
63194;BME280;49289;51.670;5.624;2023-02-18T04:25:46;102041.57;;;15.65;72.02
63194;BME280;49289;51.670;5.624;2023-02-18T04:27:35;102053.09;;;15.63;71.52
63194;BME280;49289;51.670;5.624;2023-02-18T04:29:23;102055.98;;;15.56;72.36
63194;BME280;49289;51.670;5.624;2023-02-18T04:31:12;102061.41;;;15.55;72.07
63194;BME280;49289;51.670;5.624;2023-02-18T04:33:02;102057.50;;;15.60;71.71
63194;BME280;49289;51.670;5.624;2023-02-18T04:34:36;102046.56;;;15.13;72.62
63194;BME280;49289;51.670;5.624;2023-02-18T04:36:24;102060.39;;;15.60;72.18
63194;BME280;49289;51.670;5.624;2023-02-18T04:38:14;102057.19;;;16.04;70.43
63194;BME280;49289;51.670;5.624;2023-02-18T04:39:48;102059.80;;;15.76;71.51
63194;BME280;49289;51.670;5.624;2023-02-18T04:41:22;102060.13;;;15.68;71.08
63194;BME280;49289;51.670;5.624;2023-02-18T04:43:10;102046.98;;;15.28;72.49
63194;BME280;49289;51.670;5.624;2023-02-18T04:44:59;102053.79;;;15.77;71.36
63194;BME280;49289;51.670;5.624;2023-02-18T04:46:47;102051.96;;;15.33;72.12
63194;BME280;49289;51.670;5.624;2023-02-18T04:48:36;102053.81;;;15.43;72.64
63194;BME280;49289;51.670;5.624;2023-02-18T04:50:24;102046.75;;;14.96;72.90
63194;BME280;49289;51.670;5.624;2023-02-18T04:52:12;102063.69;;;15.11;74.08
63194;BME280;49289;51.670;5.624;2023-02-18T04:54:00;102046.89;;;14.95;74.50
63194;BME280;49289;51.670;5.624;2023-02-18T04:55:48;102061.74;;;15.16;73.96
63194;BME280;49289;51.670;5.624;2023-02-18T04:57:36;102034.30;;;15.14;73.56
63194;BME280;49289;51.670;5.624;2023-02-18T04:59:23;102048.16;;;15.33;72.98
63194;BME280;49289;51.670;5.624;2023-02-18T05:01:11;102052.05;;;14.88;74.30
63194;BME280;49289;51.670;5.624;2023-02-18T05:02:59;102049.56;;;15.00;74.55
63194;BME280;49289;51.670;5.624;2023-02-18T05:04:48;102053.83;;;14.87;73.82
63194;BME280;49289;51.670;5.624;2023-02-18T05:06:35;102034.81;;;15.02;74.01
63194;BME280;49289;51.670;5.624;2023-02-18T05:08:23;102023.92;;;15.31;72.58
63194;BME280;49289;51.670;5.624;2023-02-18T05:10:14;102021.98;;;15.50;72.04
63194;BME280;49289;51.670;5.624;2023-02-18T05:12:00;102025.13;;;15.18;73.24
63194;BME280;49289;51.670;5.624;2023-02-18T05:13:49;102038.03;;;15.46;72.43
63194;BME280;49289;51.670;5.624;2023-02-18T05:15:37;102039.52;;;14.93;74.42
63194;BME280;49289;51.670;5.624;2023-02-18T05:17:11;102037.37;;;15.01;73.55
63194;BME280;49289;51.670;5.624;2023-02-18T05:19:00;102026.34;;;15.21;73.37
63194;BME280;49289;51.670;5.624;2023-02-18T05:20:49;102018.89;;;15.03;73.44
63194;BME280;49289;51.670;5.624;2023-02-18T05:24:24;102023.58;;;15.22;73.52
63194;BME280;49289;51.670;5.624;2023-02-18T05:26:13;102026.50;;;15.61;72.50
63194;BME280;49289;51.670;5.624;2023-02-18T05:28:01;102020.47;;;15.42;72.99
63194;BME280;49289;51.670;5.624;2023-02-18T05:29:49;102014.31;;;15.32;73.40
63194;BME280;49289;51.670;5.624;2023-02-18T05:31:38;102017.52;;;15.24;74.01
63194;BME280;49289;51.670;5.624;2023-02-18T05:33:30;102002.87;;;14.94;74.09
63194;BME280;49289;51.670;5.624;2023-02-18T05:35:18;102026.60;;;15.23;73.55
63194;BME280;49289;51.670;5.624;2023-02-18T05:37:05;102005.58;;;14.93;74.35
63194;BME280;49289;51.670;5.624;2023-02-18T05:38:37;102004.13;;;15.12;73.25
63194;BME280;49289;51.670;5.624;2023-02-18T05:40:25;102005.43;;;14.94;73.98
63194;BME280;49289;51.670;5.624;2023-02-18T05:42:12;101993.23;;;14.87;74.57
63194;BME280;49289;51.670;5.624;2023-02-18T05:44:00;102017.97;;;15.27;73.68
63194;BME280;49289;51.670;5.624;2023-02-18T05:45:48;102018.38;;;15.62;72.12
63194;BME280;49289;51.670;5.624;2023-02-18T05:47:36;102012.11;;;15.11;73.80
63194;BME280;49289;51.670;5.624;2023-02-18T05:49:25;102011.07;;;15.24;73.08
63194;BME280;49289;51.670;5.624;2023-02-18T05:51:13;102005.72;;;15.01;73.90
63194;BME280;49289;51.670;5.624;2023-02-18T05:53:01;101989.69;;;14.78;74.56
63194;BME280;49289;51.670;5.624;2023-02-18T05:54:50;102005.95;;;14.90;74.02
63194;BME280;49289;51.670;5.624;2023-02-18T05:56:37;101991.28;;;14.76;74.04
63194;BME280;49289;51.670;5.624;2023-02-18T05:58:24;101997.39;;;14.95;73.98
63194;BME280;49289;51.670;5.624;2023-02-18T06:00:12;101997.22;;;15.05;74.05
63194;BME280;49289;51.670;5.624;2023-02-18T06:02:01;101990.59;;;15.30;73.42
63194;BME280;49289;51.670;5.624;2023-02-18T06:03:49;101972.03;;;15.40;72.73
63194;BME280;49289;51.670;5.624;2023-02-18T06:05:36;101992.68;;;15.54;72.32
63194;BME280;49289;51.670;5.624;2023-02-18T06:07:23;101993.91;;;15.31;72.66
63194;BME280;49289;51.670;5.624;2023-02-18T06:09:10;101995.07;;;15.25;73.28
63194;BME280;49289;51.670;5.624;2023-02-18T06:10:57;101991.91;;;15.39;72.99
63194;BME280;49289;51.670;5.624;2023-02-18T06:12:44;101970.59;;;15.37;72.76
63194;BME280;49289;51.670;5.624;2023-02-18T06:14:31;101985.52;;;14.90;73.76
63194;BME280;49289;51.670;5.624;2023-02-18T06:16:19;101996.91;;;15.21;73.67
63194;BME280;49289;51.670;5.624;2023-02-18T06:18:06;101973.34;;;14.97;73.81
63194;BME280;49289;51.670;5.624;2023-02-18T06:19:53;101987.09;;;14.92;73.93
63194;BME280;49289;51.670;5.624;2023-02-18T06:21:40;101976.24;;;14.85;74.43
63194;BME280;49289;51.670;5.624;2023-02-18T06:23:27;101971.12;;;15.00;74.19
63194;BME280;49289;51.670;5.624;2023-02-18T06:25:15;101983.53;;;15.48;72.55
63194;BME280;49289;51.670;5.624;2023-02-18T06:27:04;101986.16;;;15.07;73.90
63194;BME280;49289;51.670;5.624;2023-02-18T06:28:52;101982.00;;;14.95;73.87
63194;BME280;49289;51.670;5.624;2023-02-18T06:30:40;101967.32;;;15.16;73.53
63194;BME280;49289;51.670;5.624;2023-02-18T06:32:28;101982.37;;;15.60;71.68
63194;BME280;49289;51.670;5.624;2023-02-18T06:34:16;101965.92;;;15.69;71.16
63194;BME280;49289;51.670;5.624;2023-02-18T06:36:05;101979.75;;;15.39;72.54
63194;BME280;49289;51.670;5.624;2023-02-18T06:37:51;101991.03;;;14.57;75.21
63194;BME280;49289;51.670;5.624;2023-02-18T06:39:38;101975.56;;;14.80;74.54
63194;BME280;49289;51.670;5.624;2023-02-18T06:41:25;101968.09;;;15.30;73.00
63194;BME280;49289;51.670;5.624;2023-02-18T06:43:12;101992.02;;;14.80;73.90
63194;BME280;49289;51.670;5.624;2023-02-18T06:44:59;101980.67;;;14.81;74.00
63194;BME280;49289;51.670;5.624;2023-02-18T06:46:46;101967.25;;;15.12;73.63
63194;BME280;49289;51.670;5.624;2023-02-18T06:48:33;101964.03;;;15.03;73.30
63194;BME280;49289;51.670;5.624;2023-02-18T06:50:21;101972.58;;;14.75;74.35
63194;BME280;49289;51.670;5.624;2023-02-18T06:52:08;101978.98;;;14.94;73.95
63194;BME280;49289;51.670;5.624;2023-02-18T06:53:55;101980.23;;;15.42;72.92
63194;BME280;49289;51.670;5.624;2023-02-18T06:55:42;101971.19;;;14.80;73.18
63194;BME280;49289;51.670;5.624;2023-02-18T06:57:29;101969.80;;;14.89;73.38
63194;BME280;49289;51.670;5.624;2023-02-18T06:59:16;101984.52;;;14.88;74.33
63194;BME280;49289;51.670;5.624;2023-02-18T07:01:03;101994.55;;;14.73;74.18
63194;BME280;49289;51.670;5.624;2023-02-18T07:02:51;101978.69;;;14.60;74.74
63194;BME280;49289;51.670;5.624;2023-02-18T07:04:39;101981.88;;;14.84;73.93
63194;BME280;49289;51.670;5.624;2023-02-18T07:06:28;101976.72;;;14.97;73.76
63194;BME280;49289;51.670;5.624;2023-02-18T07:08:16;101985.47;;;14.38;74.84
63194;BME280;49289;51.670;5.624;2023-02-18T07:10:04;102002.87;;;14.52;75.62
63194;BME280;49289;51.670;5.624;2023-02-18T07:11:51;101979.07;;;14.67;75.02
63194;BME280;49289;51.670;5.624;2023-02-18T07:13:39;101987.52;;;14.63;74.33
63194;BME280;49289;51.670;5.624;2023-02-18T07:15:26;101998.22;;;14.95;74.43
63194;BME280;49289;51.670;5.624;2023-02-18T07:17:13;101987.00;;;14.81;74.29
63194;BME280;49289;51.670;5.624;2023-02-18T07:19:00;101988.66;;;15.18;72.77
63194;BME280;49289;51.670;5.624;2023-02-18T07:20:47;102000.13;;;14.86;73.79
63194;BME280;49289;51.670;5.624;2023-02-18T07:22:34;102001.41;;;14.79;73.68
63194;BME280;49289;51.670;5.624;2023-02-18T07:24:21;102007.00;;;14.46;74.76
63194;BME280;49289;51.670;5.624;2023-02-18T07:26:14;102001.17;;;14.45;74.85
63194;BME280;49289;51.670;5.624;2023-02-18T07:28:01;102010.06;;;14.36;75.01
63194;BME280;49289;51.670;5.624;2023-02-18T07:29:49;101998.77;;;14.39;75.42
63194;BME280;49289;51.670;5.624;2023-02-18T07:31:36;102002.43;;;14.42;74.46
63194;BME280;49289;51.670;5.624;2023-02-18T07:33:23;102011.55;;;14.60;74.61
63194;BME280;49289;51.670;5.624;2023-02-18T07:35:12;102008.67;;;14.27;75.04
63194;BME280;49289;51.670;5.624;2023-02-18T07:37:00;102024.28;;;14.50;74.79
63194;BME280;49289;51.670;5.624;2023-02-18T07:38:47;102020.11;;;15.09;72.46
63194;BME280;49289;51.670;5.624;2023-02-18T07:40:35;102023.11;;;14.50;74.30
63194;BME280;49289;51.670;5.624;2023-02-18T07:42:22;102023.31;;;14.53;73.25
63194;BME280;49289;51.670;5.624;2023-02-18T07:44:09;102021.04;;;14.34;74.21
63194;BME280;49289;51.670;5.624;2023-02-18T07:45:56;102030.52;;;14.08;75.35
63194;BME280;49289;51.670;5.624;2023-02-18T07:47:43;102033.58;;;14.57;73.65
63194;BME280;49289;51.670;5.624;2023-02-18T07:49:30;102025.50;;;14.25;74.25
63194;BME280;49289;51.670;5.624;2023-02-18T07:51:17;102030.53;;;14.44;73.59
63194;BME280;49289;51.670;5.624;2023-02-18T07:53:06;102024.26;;;14.16;74.07
63194;BME280;49289;51.670;5.624;2023-02-18T07:54:53;102033.31;;;13.80;75.31
63194;BME280;49289;51.670;5.624;2023-02-18T07:56:42;102029.89;;;14.07;74.73
63194;BME280;49289;51.670;5.624;2023-02-18T07:58:30;102034.44;;;14.20;74.67
63194;BME280;49289;51.670;5.624;2023-02-18T08:00:19;102032.63;;;14.15;74.08
63194;BME280;49289;51.670;5.624;2023-02-18T08:02:08;102024.64;;;14.61;72.52
63194;BME280;49289;51.670;5.624;2023-02-18T08:03:53;102033.70;;;14.37;72.78
63194;BME280;49289;51.670;5.624;2023-02-18T08:05:40;102039.09;;;14.60;72.18
63194;BME280;49289;51.670;5.624;2023-02-18T08:07:28;102032.41;;;14.97;70.78
63194;BME280;49289;51.670;5.624;2023-02-18T08:09:16;102022.69;;;14.28;72.62
63194;BME280;49289;51.670;5.624;2023-02-18T08:11:05;102023.86;;;14.56;71.93
63194;BME280;49289;51.670;5.624;2023-02-18T08:12:53;102033.61;;;14.65;71.59
63194;BME280;49289;51.670;5.624;2023-02-18T08:14:40;102032.08;;;14.19;72.73
63194;BME280;49289;51.670;5.624;2023-02-18T08:16:29;102022.50;;;14.41;72.53
63194;BME280;49289;51.670;5.624;2023-02-18T08:18:18;102040.77;;;14.30;71.71
63194;BME280;49289;51.670;5.624;2023-02-18T08:20:06;102032.56;;;14.58;71.41
63194;BME280;49289;51.670;5.624;2023-02-18T08:21:54;102029.55;;;14.57;71.11
63194;BME280;49289;51.670;5.624;2023-02-18T08:23:42;102026.05;;;14.83;70.32
63194;BME280;49289;51.670;5.624;2023-02-18T08:25:30;102025.97;;;14.78;70.08
63194;BME280;49289;51.670;5.624;2023-02-18T08:27:17;102011.48;;;14.58;70.57
63194;BME280;49289;51.670;5.624;2023-02-18T08:29:04;102021.27;;;14.24;71.32
63194;BME280;49289;51.670;5.624;2023-02-18T08:30:51;102027.03;;;14.45;70.65
63194;BME280;49289;51.670;5.624;2023-02-18T08:32:38;102017.59;;;14.36;70.80
63194;BME280;49289;51.670;5.624;2023-02-18T08:34:26;102030.17;;;14.79;69.24
63194;BME280;49289;51.670;5.624;2023-02-18T08:36:15;102025.30;;;14.71;68.98
63194;BME280;49289;51.670;5.624;2023-02-18T08:38:02;102026.08;;;14.52;69.27
63194;BME280;49289;51.670;5.624;2023-02-18T08:39:50;102022.97;;;14.33;70.09
63194;BME280;49289;51.670;5.624;2023-02-18T08:41:37;102027.02;;;14.37;69.93
63194;BME280;49289;51.670;5.624;2023-02-18T08:43:24;102024.45;;;14.49;69.74
63194;BME280;49289;51.670;5.624;2023-02-18T08:45:12;102022.97;;;14.54;69.00
63194;BME280;49289;51.670;5.624;2023-02-18T08:47:00;102009.39;;;14.65;68.52
63194;BME280;49289;51.670;5.624;2023-02-18T08:48:47;102027.67;;;14.98;68.05
63194;BME280;49289;51.670;5.624;2023-02-18T08:50:34;102031.13;;;14.88;67.54
63194;BME280;49289;51.670;5.624;2023-02-18T08:52:21;102039.87;;;15.06;67.67
63194;BME280;49289;51.670;5.624;2023-02-18T08:54:08;102046.38;;;14.76;67.69
63194;BME280;49289;51.670;5.624;2023-02-18T08:55:58;102040.26;;;14.57;68.26
63194;BME280;49289;51.670;5.624;2023-02-18T08:57:46;102029.87;;;15.24;66.67
63194;BME280;49289;51.670;5.624;2023-02-18T08:59:33;102037.16;;;15.19;66.02
63194;BME280;49289;51.670;5.624;2023-02-18T09:01:20;102041.08;;;15.52;65.71
63194;BME280;49289;51.670;5.624;2023-02-18T09:03:08;102037.63;;;14.97;66.31
63194;BME280;49289;51.670;5.624;2023-02-18T09:04:54;102026.98;;;14.43;68.33
63194;BME280;49289;51.670;5.624;2023-02-18T09:06:42;102035.50;;;14.20;68.94
63194;BME280;49289;51.670;5.624;2023-02-18T09:08:30;102036.08;;;14.36;68.74
63194;BME280;49289;51.670;5.624;2023-02-18T09:10:19;102037.03;;;14.47;69.00
63194;BME280;49289;51.670;5.624;2023-02-18T09:12:06;102028.18;;;14.35;69.65
63194;BME280;49289;51.670;5.624;2023-02-18T09:13:53;102032.81;;;14.47;69.83
63194;BME280;49289;51.670;5.624;2023-02-18T09:15:40;102033.08;;;14.74;68.79
63194;BME280;49289;51.670;5.624;2023-02-18T09:17:27;102029.14;;;14.30;70.16
63194;BME280;49289;51.670;5.624;2023-02-18T09:19:14;102036.52;;;14.49;69.45
63194;BME280;49289;51.670;5.624;2023-02-18T09:21:02;102024.23;;;14.49;69.37
63194;BME280;49289;51.670;5.624;2023-02-18T09:22:48;102031.38;;;14.48;69.48
63194;BME280;49289;51.670;5.624;2023-02-18T09:24:35;102028.77;;;13.97;70.96
63194;BME280;49289;51.670;5.624;2023-02-18T09:26:22;102028.91;;;14.02;70.88
63194;BME280;49289;51.670;5.624;2023-02-18T09:28:10;102030.22;;;14.34;70.10
63194;BME280;49289;51.670;5.624;2023-02-18T09:29:58;102020.10;;;14.39;69.75
63194;BME280;49289;51.670;5.624;2023-02-18T09:31:46;102018.76;;;14.04;70.88
63194;BME280;49289;51.670;5.624;2023-02-18T09:33:35;102019.43;;;14.27;70.02
63194;BME280;49289;51.670;5.624;2023-02-18T09:35:22;102034.95;;;14.56;68.93
63194;BME280;49289;51.670;5.624;2023-02-18T09:37:09;102029.38;;;14.27;69.08
63194;BME280;49289;51.670;5.624;2023-02-18T09:38:56;102025.24;;;14.46;68.65
63194;BME280;49289;51.670;5.624;2023-02-18T09:40:44;102038.41;;;14.23;69.36
63194;BME280;49289;51.670;5.624;2023-02-18T09:42:31;102033.56;;;14.12;68.85
63194;BME280;49289;51.670;5.624;2023-02-18T09:44:19;102035.08;;;14.59;68.61